»·PEaware :: N232KS KSJC-KRKS

N232KS :: KSJC-KRKS

FLIGHT INFORMATION

Flight Status: Arrived
Operator: Privately registered:
United States
More flights under this callsign
Pilot: Tyler J. (19619)
Aircraft: CESSNA 550 CITATION 2/S2/BRAVO
(C550)
More flights by this aircraft type
Origin: KSJC Mineta San Jose Intl
United States
Destination: KRKS Rock Springs-Sweetwater
United States
More flights between these airports :: More routes between these airports
Route: +LOUPE4 BMRNG SYRAH MVA J56 TCH V32 FBR V142 PUDVY
File this flight plan on PilotEdge
Remarks:
Altitude:
(Current/Filed)
33,000ft
Speed:
(Current/Filed)
430kts
Departed: 28-Sep-18 07:18 AM
Arrived: 28-Sep-18 09:14 AM
Distance/Time
Traveled:
647nm/1:55
Distance/Time
To Go:
Arrived

Flight Plot

Page will automatically refresh every two minutes.

Flight plan parsing failed; only flown route is shown


Map Options




Map Legend


Flown Route
Filed Route
Departure Airport
Arrival Airport
Navaid (VOR, NDB)
Fix

Horizontal Profiles

Position Reports

Time Latitude Longitude Heading Altitude Ground
Speed
28-Sep-18 06:50 37.358289 -121.931317 305 65ft 0kts
28-Sep-18 06:51 37.358289 -121.931317 305 65ft 0kts
28-Sep-18 06:52 37.358289 -121.931317 305 65ft 0kts
28-Sep-18 06:53 37.358289 -121.931317 305 65ft 0kts
28-Sep-18 06:54 37.358289 -121.931317 305 65ft 0kts
28-Sep-18 06:55 37.358289 -121.931317 305 65ft 0kts
28-Sep-18 06:56 37.358289 -121.931317 305 65ft 0kts
28-Sep-18 06:57 37.358289 -121.931317 305 65ft 0kts
28-Sep-18 06:58 37.358289 -121.931317 305 65ft 0kts
28-Sep-18 06:59 37.358289 -121.931317 305 65ft 0kts
28-Sep-18 07:00 37.358289 -121.931317 305 65ft 0kts
28-Sep-18 07:01 37.358289 -121.931317 305 65ft 0kts
28-Sep-18 07:02 37.358289 -121.931317 305 65ft 0kts
28-Sep-18 07:03 37.358289 -121.931317 305 65ft 0kts
28-Sep-18 07:04 37.358289 -121.931317 305 65ft 0kts
28-Sep-18 07:05 37.358289 -121.931317 305 65ft 0kts
28-Sep-18 07:06 37.358289 -121.931317 305 65ft 0kts
28-Sep-18 07:07 37.358289 -121.931317 305 65ft 0kts
28-Sep-18 07:08 37.358289 -121.931317 305 65ft 0kts
28-Sep-18 07:09 37.358290 -121.931319 305 65ft 0kts
28-Sep-18 07:10 37.358292 -121.931321 305 65ft 0kts
28-Sep-18 07:11 37.358532 -121.931097 56 65ft 8kts
28-Sep-18 07:12 37.358621 -121.930937 53 65ft 0kts
28-Sep-18 07:13 37.358623 -121.930934 53 65ft 0kts
28-Sep-18 07:14 37.358625 -121.930931 53 65ft 0kts
28-Sep-18 07:15 37.358626 -121.930928 53 65ft 0kts
28-Sep-18 07:16 37.358285 -121.929837 132 65ft 18kts
28-Sep-18 07:17 37.354766 -121.925987 137 65ft 14kts
28-Sep-18 07:18 37.353591 -121.921705 139 65ft 26kts
28-Sep-18 07:19 37.352679 -121.920093 51 65ft 6kts
28-Sep-18 07:20 37.363935 -121.931272 318 308ft 138kts
28-Sep-18 07:21 37.399580 -121.970193 319 2684ft 211kts
28-Sep-18 07:22 37.450144 -122.026323 318 5024ft 281kts
28-Sep-18 07:23 37.508157 -122.088182 319 5012ft 297kts
28-Sep-18 07:24 37.571277 -122.106387 43 4492ft 255kts
28-Sep-18 07:25 37.550317 -122.061992 200 4987ft 213kts
28-Sep-18 07:26 37.505199 -122.067047 147 5033ft 189kts
28-Sep-18 07:27 37.455533 -122.025335 145 5004ft 215kts
28-Sep-18 07:28 37.420705 -121.966713 114 5002ft 210kts
28-Sep-18 07:29 37.395652 -121.900299 114 5000ft 209kts
28-Sep-18 07:30 37.370707 -121.834422 114 4997ft 209kts
28-Sep-18 07:31 37.345542 -121.768378 114 5017ft 224kts
28-Sep-18 07:32 37.318102 -121.698840 117 7386ft 229kts
28-Sep-18 07:33 37.267219 -121.683226 232 9473ft 242kts
28-Sep-18 07:34 37.269577 -121.764043 282 11563ft 230kts
28-Sep-18 07:35 37.301989 -121.847597 306 13032ft 298kts
28-Sep-18 07:36 37.359483 -121.924852 313 15714ft 306kts
28-Sep-18 07:37 37.438205 -121.960726 359 18136ft 320kts
28-Sep-18 07:38 37.528598 -121.959755 357 20288ft 330kts
28-Sep-18 07:39 37.617740 -121.941659 43 22154ft 338kts
28-Sep-18 07:40 37.672819 -121.841955 63 23167ft 366kts
28-Sep-18 07:41 37.722915 -121.725993 64 24629ft 384kts
28-Sep-18 07:42 37.774294 -121.606677 63 26124ft 390kts
28-Sep-18 07:43 37.826380 -121.486209 63 27625ft 388kts
28-Sep-18 07:44 37.878004 -121.366653 63 29123ft 383kts
28-Sep-18 07:45 37.928593 -121.249075 63 30461ft 381kts
28-Sep-18 07:46 37.978686 -121.129290 68 31468ft 384kts
28-Sep-18 07:47 38.011088 -121.001194 76 32465ft 382kts
28-Sep-18 07:48 38.038074 -120.869202 77 32916ft 394kts
28-Sep-18 07:49 38.065410 -120.731620 77 32926ft 410kts
28-Sep-18 07:50 38.093551 -120.589026 77 32932ft 420kts
28-Sep-18 07:51 38.121924 -120.444365 77 32949ft 425kts
28-Sep-18 07:52 38.149726 -120.301649 77 32962ft 427kts
28-Sep-18 07:53 38.178115 -120.154838 77 32991ft 428kts
28-Sep-18 07:54 38.206299 -120.007985 77 33013ft 429kts
28-Sep-18 07:55 38.234364 -119.860627 77 33134ft 430kts
28-Sep-18 07:56 38.262464 -119.712020 77 33155ft 432kts
28-Sep-18 07:57 38.290425 -119.563051 77 33155ft 433kts
28-Sep-18 07:58 38.318274 -119.413548 77 33159ft 433kts
28-Sep-18 07:59 38.345933 -119.263906 77 33158ft 434kts
28-Sep-18 08:00 38.373335 -119.114517 78 33161ft 433kts
28-Sep-18 08:01 38.400578 -118.964853 78 33179ft 432kts
28-Sep-18 08:02 38.427508 -118.815719 78 33188ft 431kts
28-Sep-18 08:03 38.454281 -118.666277 78 33197ft 431kts
28-Sep-18 08:04 38.480737 -118.517398 78 33195ft 431kts
28-Sep-18 08:05 38.506534 -118.371070 78 33170ft 432kts
28-Sep-18 08:06 38.532760 -118.221088 78 33159ft 433kts
28-Sep-18 08:07 38.559210 -118.070889 74 33146ft 434kts
28-Sep-18 08:08 38.607032 -117.929908 62 33135ft 433kts
28-Sep-18 08:09 38.663481 -117.793666 60 33136ft 432kts
28-Sep-18 08:10 38.720144 -117.657954 60 33103ft 432kts
28-Sep-18 08:11 38.776377 -117.522037 60 33117ft 432kts
28-Sep-18 08:12 38.832332 -117.385712 60 33123ft 432kts
28-Sep-18 08:13 38.887960 -117.249331 60 33121ft 432kts
28-Sep-18 08:14 38.943520 -117.112389 60 33130ft 432kts
28-Sep-18 08:15 38.998981 -116.975033 60 33133ft 432kts
28-Sep-18 08:16 39.054094 -116.837905 60 33136ft 432kts
28-Sep-18 08:17 39.109247 -116.700045 60 33137ft 432kts
28-Sep-18 08:18 39.162593 -116.566092 60 33146ft 432kts
28-Sep-18 08:19 39.217220 -116.428314 60 33152ft 432kts
28-Sep-18 08:20 39.271840 -116.289927 60 33153ft 432kts
28-Sep-18 08:21 39.326344 -116.151199 60 33161ft 432kts
28-Sep-18 08:22 39.380696 -116.012226 60 33160ft 433kts
28-Sep-18 08:23 39.434810 -115.873225 60 33166ft 433kts
28-Sep-18 08:24 39.488774 -115.733966 60 33180ft 434kts
28-Sep-18 08:25 39.542901 -115.593634 60 33187ft 434kts
28-Sep-18 08:26 39.596747 -115.453377 60 33194ft 435kts
28-Sep-18 08:27 39.650441 -115.312855 61 33199ft 435kts
28-Sep-18 08:28 39.704063 -115.171856 61 33200ft 436kts
28-Sep-18 08:29 39.757583 -115.030453 61 33200ft 436kts
28-Sep-18 08:30 39.810764 -114.889274 61 33199ft 436kts
28-Sep-18 08:31 39.855217 -114.770743 61 33190ft 436kts
28-Sep-18 08:32 39.906689 -114.632902 61 33189ft 436kts
28-Sep-18 08:33 39.959492 -114.490827 61 33186ft 436kts
28-Sep-18 08:34 40.012261 -114.348154 61 33182ft 435kts
28-Sep-18 08:35 40.073292 -114.182268 61 33176ft 435kts
28-Sep-18 08:36 40.116872 -114.063238 61 33167ft 435kts
28-Sep-18 08:37 40.168918 -113.920442 61 33161ft 435kts
28-Sep-18 08:38 40.220951 -113.776969 61 33135ft 435kts
28-Sep-18 08:39 40.272544 -113.634011 61 33123ft 434kts
28-Sep-18 08:40 40.323856 -113.491132 61 33115ft 434kts
28-Sep-18 08:41 40.375178 -113.347510 61 33110ft 434kts
28-Sep-18 08:42 40.426221 -113.203958 61 33108ft 434kts
28-Sep-18 08:43 40.476901 -113.060709 62 33107ft 434kts
28-Sep-18 08:44 40.527726 -112.916325 62 33106ft 434kts
28-Sep-18 08:45 40.578173 -112.772285 62 33105ft 434kts
28-Sep-18 08:46 40.628610 -112.627535 62 33104ft 434kts
28-Sep-18 08:47 40.677091 -112.487687 62 33105ft 435kts
28-Sep-18 08:48 40.727099 -112.342690 62 33108ft 435kts
28-Sep-18 08:49 40.777041 -112.197105 62 33119ft 435kts
28-Sep-18 08:50 40.826729 -112.051420 62 33114ft 435kts
28-Sep-18 08:51 40.876810 -111.905959 62 33017ft 436kts
28-Sep-18 08:52 40.926896 -111.761555 62 31024ft 429kts
28-Sep-18 08:53 40.976529 -111.617853 62 29023ft 429kts
28-Sep-18 08:54 41.025837 -111.474237 62 27027ft 428kts
28-Sep-18 08:55 41.074820 -111.330621 62 25027ft 424kts
28-Sep-18 08:56 41.129828 -111.168444 62 24163ft 395kts
28-Sep-18 08:57 41.166708 -111.059220 62 24173ft 382kts
28-Sep-18 08:58 41.209443 -110.932295 62 24195ft 371kts
28-Sep-18 08:59 41.250823 -110.808770 62 24207ft 362kts
28-Sep-18 09:00 41.293085 -110.682621 62 24215ft 411kts
28-Sep-18 09:01 41.340685 -110.539297 63 24217ft 434kts
28-Sep-18 09:02 41.383966 -110.387439 72 24217ft 438kts
28-Sep-18 09:03 41.409266 -110.235290 76 24234ft 412kts
28-Sep-18 09:04 41.431174 -110.086249 76 24246ft 408kts
28-Sep-18 09:05 41.453595 -109.937933 76 23128ft 406kts
28-Sep-18 09:06 41.475855 -109.791644 76 21129ft 398kts
28-Sep-18 09:07 41.497426 -109.648242 76 19125ft 383kts
28-Sep-18 09:08 41.517522 -109.513580 79 17127ft 359kts
28-Sep-18 09:09 41.535918 -109.389663 80 15128ft 316kts
28-Sep-18 09:10 41.551205 -109.277006 80 13124ft 297kts
28-Sep-18 09:11 41.563507 -109.177066 79 11151ft 247kts
28-Sep-18 09:12 41.578695 -109.097296 72 9983ft 181kts
28-Sep-18 09:13 41.611493 -109.062307 354 9294ft 152kts
28-Sep-18 09:14 41.623803 -109.111584 221 8468ft 148kts
28-Sep-18 09:15 41.600178 -109.096789 100 7076ft 134kts
28-Sep-18 09:16 41.595576 -109.069832 63 6763ft 10kts
28-Sep-18 09:17 41.598810 -109.067069 51 6763ft 16kts
28-Sep-18 09:18 41.599831 -109.066785 45 6763ft 0kts
28-Sep-18 09:19 41.599831 -109.066785 45 6763ft 0kts
28-Sep-18 09:20 41.599831 -109.066785 45 6763ft 0kts
28-Sep-18 09:21 41.599831 -109.066785 45 6763ft 0kts
28-Sep-18 09:22 41.599831 -109.066785 45 6763ft 0kts
28-Sep-18 09:23 41.599831 -109.066785 45 6763ft 0kts
28-Sep-18 09:24 41.599831 -109.066785 45 6763ft 0kts
28-Sep-18 09:25 41.599831 -109.066785 45 6763ft 0kts
28-Sep-18 09:26 41.599831 -109.066785 45 6763ft 0kts
28-Sep-18 09:27 41.599831 -109.066785 45 6763ft 0kts
28-Sep-18 09:28 41.599831 -109.066785 45 6763ft 0kts
28-Sep-18 09:29 41.599831 -109.066785 45 6763ft 0kts
28-Sep-18 09:30 41.599831 -109.066785 45 6763ft 0kts

Navigation Log

Ident Type
Flight plan parsing failed, navigation log unavailable